KSAT/SAT METAR and TAF weather

Enter ICAO airport designator
Station Type Date Time Source
KSAT METAR 2020/09/19 05:51 UTC NOAA

KSAT 190551Z 03006KT 10SM FEW250 24/16 A3007 RMK AO2 SLP165 T02390161 10294 20239 403170222 50005


Station Type Date Time Source
KSAT Decoded METAR 2020/09/19 05:51 UTC NOAA

SAN ANTONIO INTERNATIONAL AIRPORT , TX, United States (KSAT) 29-32N 098-28W 243M
Sep 19, 2020 - 01:51 AM EDT / 2020.09.19 0551 UTC
Wind: from the NNE (030 degrees) at 7 MPH (6 KT):0
Visibility: 10 mile(s):0
Sky conditions: mostly clear
Temperature: 75.0 F (23.9 C)
Dew Point: 61.0 F (16.1 C)
Relative Humidity: 61%
Pressure (altimeter): 30.07 in. Hg (1018 hPa)
Pressure tendency: 0.01 inches (0.5 hPa) higher than three hours ago
ob: KSAT 190551Z 03006KT 10SM FEW250 24/16 A3007 RMK AO2 SLP165 T02390161 10294 20239 403170222 50005
cycle: 6

Station Type Date Time Source
KSAT TAF 2020/09/19 06:33 UTC NOAA

TAF KSAT 190531Z 1906/2012 02006KT P6SM FEW250
FM191500 03012G21KT P6SM FEW250

Example: see airport list